Terminal Aerodrome Forecast
Issued by NWS Paducah, KY

Home | Current Version | Previous Version | Text Only | Print | Product List | Glossary Off
Versions: 1 2 3 4 5 6 7 8 9 10 11 12 13 14 15

000
FTUS43 KPAH 292320
TAFPAH
TAF
KPAH 292320Z 3000/3024 31006KT P6SM BKN060
     FM300900 00000KT P6SM SKC
     FM301300 VRB04KT P6SM SCT250
     FM301900 VRB05KT P6SM SCT100 BKN250=

USA.gov is the U.S. government's official web portal to all federal, state and local government web resources and services.